sensor_id;sensor_type;location;lat;lon;timestamp;P1;durP1;ratioP1;P2;durP2;ratioP2
4642;SDS011;2334;48.710;9.622;2023-10-08T00:02:04;14.17;;;5.03;;
4642;SDS011;2334;48.710;9.622;2023-10-08T00:04:31;9.20;;;5.93;;
4642;SDS011;2334;48.710;9.622;2023-10-08T00:07:02;8.63;;;5.33;;
4642;SDS011;2334;48.710;9.622;2023-10-08T00:09:32;15.57;;;5.20;;
4642;SDS011;2334;48.710;9.622;2023-10-08T00:12:03;11.73;;;5.90;;
4642;SDS011;2334;48.710;9.622;2023-10-08T00:14:30;16.23;;;6.90;;
4642;SDS011;2334;48.710;9.622;2023-10-08T00:16:57;13.10;;;4.83;;
4642;SDS011;2334;48.710;9.622;2023-10-08T00:19:25;9.57;;;5.67;;
4642;SDS011;2334;48.710;9.622;2023-10-08T00:21:59;10.10;;;5.23;;
4642;SDS011;2334;48.710;9.622;2023-10-08T00:24:31;13.97;;;6.27;;
4642;SDS011;2334;48.710;9.622;2023-10-08T00:26:58;14.10;;;7.03;;
4642;SDS011;2334;48.710;9.622;2023-10-08T00:29:27;18.33;;;6.83;;
4642;SDS011;2334;48.710;9.622;2023-10-08T00:31:56;16.13;;;7.30;;
4642;SDS011;2334;48.710;9.622;2023-10-08T00:34:23;12.00;;;6.10;;
4642;SDS011;2334;48.710;9.622;2023-10-08T00:36:53;9.93;;;5.33;;
4642;SDS011;2334;48.710;9.622;2023-10-08T00:39:20;18.90;;;6.47;;
4642;SDS011;2334;48.710;9.622;2023-10-08T00:41:51;16.50;;;6.10;;
4642;SDS011;2334;48.710;9.622;2023-10-08T00:44:23;11.67;;;6.00;;
4642;SDS011;2334;48.710;9.622;2023-10-08T00:46:56;11.47;;;6.27;;
4642;SDS011;2334;48.710;9.622;2023-10-08T00:49:26;11.80;;;5.97;;
4642;SDS011;2334;48.710;9.622;2023-10-08T00:52:05;10.43;;;5.20;;
4642;SDS011;2334;48.710;9.622;2023-10-08T00:54:51;11.53;;;6.17;;
4642;SDS011;2334;48.710;9.622;2023-10-08T00:57:31;11.17;;;6.40;;
4642;SDS011;2334;48.710;9.622;2023-10-08T01:00:00;9.67;;;5.20;;
4642;SDS011;2334;48.710;9.622;2023-10-08T01:02:31;14.03;;;6.83;;
4642;SDS011;2334;48.710;9.622;2023-10-08T01:05:10;13.10;;;5.70;;
4642;SDS011;2334;48.710;9.622;2023-10-08T01:07:38;9.83;;;4.87;;
4642;SDS011;2334;48.710;9.622;2023-10-08T01:10:09;9.90;;;4.30;;
4642;SDS011;2334;48.710;9.622;2023-10-08T01:12:38;9.20;;;5.13;;
4642;SDS011;2334;48.710;9.622;2023-10-08T01:15:19;10.73;;;5.73;;
4642;SDS011;2334;48.710;9.622;2023-10-08T01:17:54;7.23;;;4.40;;
4642;SDS011;2334;48.710;9.622;2023-10-08T01:20:25;8.73;;;5.33;;
4642;SDS011;2334;48.710;9.622;2023-10-08T01:23:01;7.00;;;4.30;;
4642;SDS011;2334;48.710;9.622;2023-10-08T01:25:30;11.00;;;5.20;;
4642;SDS011;2334;48.710;9.622;2023-10-08T01:27:57;6.27;;;3.90;;
4642;SDS011;2334;48.710;9.622;2023-10-08T01:30:26;9.40;;;4.40;;
4642;SDS011;2334;48.710;9.622;2023-10-08T01:33:00;9.67;;;4.50;;
4642;SDS011;2334;48.710;9.622;2023-10-08T01:35:29;9.43;;;5.23;;
4642;SDS011;2334;48.710;9.622;2023-10-08T01:37:57;12.73;;;4.90;;
4642;SDS011;2334;48.710;9.622;2023-10-08T01:40:27;6.83;;;3.80;;
4642;SDS011;2334;48.710;9.622;2023-10-08T01:42:55;10.20;;;4.90;;
4642;SDS011;2334;48.710;9.622;2023-10-08T01:45:25;9.50;;;4.87;;
4642;SDS011;2334;48.710;9.622;2023-10-08T01:47:54;10.40;;;5.13;;
4642;SDS011;2334;48.710;9.622;2023-10-08T01:50:22;7.73;;;4.23;;
4642;SDS011;2334;48.710;9.622;2023-10-08T01:52:50;8.03;;;4.83;;
4642;SDS011;2334;48.710;9.622;2023-10-08T01:55:17;7.10;;;4.60;;
4642;SDS011;2334;48.710;9.622;2023-10-08T01:57:46;11.73;;;5.57;;
4642;SDS011;2334;48.710;9.622;2023-10-08T02:00:13;14.07;;;5.43;;
4642;SDS011;2334;48.710;9.622;2023-10-08T02:02:44;13.10;;;5.10;;
4642;SDS011;2334;48.710;9.622;2023-10-08T02:05:11;10.90;;;4.63;;
4642;SDS011;2334;48.710;9.622;2023-10-08T02:07:40;8.10;;;4.70;;
4642;SDS011;2334;48.710;9.622;2023-10-08T02:10:08;13.20;;;4.93;;
4642;SDS011;2334;48.710;9.622;2023-10-08T02:12:36;9.97;;;4.70;;
4642;SDS011;2334;48.710;9.622;2023-10-08T02:15:04;9.53;;;4.63;;
4642;SDS011;2334;48.710;9.622;2023-10-08T02:17:32;7.33;;;4.13;;
4642;SDS011;2334;48.710;9.622;2023-10-08T02:19:59;10.13;;;5.13;;
4642;SDS011;2334;48.710;9.622;2023-10-08T02:22:29;11.83;;;5.10;;
4642;SDS011;2334;48.710;9.622;2023-10-08T02:24:57;8.27;;;4.50;;
4642;SDS011;2334;48.710;9.622;2023-10-08T02:27:26;7.93;;;4.40;;
4642;SDS011;2334;48.710;9.622;2023-10-08T02:29:53;7.50;;;4.60;;
4642;SDS011;2334;48.710;9.622;2023-10-08T02:32:21;11.67;;;4.67;;
4642;SDS011;2334;48.710;9.622;2023-10-08T02:34:47;8.50;;;4.13;;
4642;SDS011;2334;48.710;9.622;2023-10-08T02:37:15;5.40;;;3.90;;
4642;SDS011;2334;48.710;9.622;2023-10-08T02:39:42;8.50;;;4.70;;
4642;SDS011;2334;48.710;9.622;2023-10-08T02:42:10;7.73;;;4.37;;
4642;SDS011;2334;48.710;9.622;2023-10-08T02:44:39;7.83;;;4.50;;
4642;SDS011;2334;48.710;9.622;2023-10-08T02:47:07;9.37;;;4.80;;
4642;SDS011;2334;48.710;9.622;2023-10-08T02:49:38;8.60;;;4.23;;
4642;SDS011;2334;48.710;9.622;2023-10-08T02:52:07;9.23;;;4.60;;
4642;SDS011;2334;48.710;9.622;2023-10-08T02:54:34;10.57;;;5.13;;
4642;SDS011;2334;48.710;9.622;2023-10-08T02:57:03;7.73;;;4.77;;
4642;SDS011;2334;48.710;9.622;2023-10-08T02:59:35;12.30;;;5.93;;
4642;SDS011;2334;48.710;9.622;2023-10-08T03:02:06;7.87;;;4.77;;
4642;SDS011;2334;48.710;9.622;2023-10-08T03:04:41;11.37;;;4.90;;
4642;SDS011;2334;48.710;9.622;2023-10-08T03:07:10;7.77;;;4.90;;
4642;SDS011;2334;48.710;9.622;2023-10-08T03:09:46;10.87;;;4.73;;
4642;SDS011;2334;48.710;9.622;2023-10-08T03:12:15;7.80;;;4.43;;
4642;SDS011;2334;48.710;9.622;2023-10-08T03:14:42;10.50;;;6.30;;
4642;SDS011;2334;48.710;9.622;2023-10-08T03:17:26;7.03;;;4.83;;
4642;SDS011;2334;48.710;9.622;2023-10-08T03:19:56;12.80;;;5.30;;
4642;SDS011;2334;48.710;9.622;2023-10-08T03:22:43;9.67;;;4.77;;
4642;SDS011;2334;48.710;9.622;2023-10-08T03:25:11;9.57;;;4.43;;
4642;SDS011;2334;48.710;9.622;2023-10-08T03:27:41;7.73;;;4.63;;
4642;SDS011;2334;48.710;9.622;2023-10-08T03:30:08;7.93;;;4.53;;
4642;SDS011;2334;48.710;9.622;2023-10-08T03:32:39;11.00;;;5.20;;
4642;SDS011;2334;48.710;9.622;2023-10-08T03:35:09;7.53;;;4.23;;
4642;SDS011;2334;48.710;9.622;2023-10-08T03:37:37;8.30;;;4.60;;
4642;SDS011;2334;48.710;9.622;2023-10-08T03:40:11;7.37;;;4.43;;
4642;SDS011;2334;48.710;9.622;2023-10-08T03:42:50;18.73;;;4.73;;
4642;SDS011;2334;48.710;9.622;2023-10-08T03:45:21;9.37;;;4.63;;
4642;SDS011;2334;48.710;9.622;2023-10-08T03:48:02;7.27;;;4.03;;
4642;SDS011;2334;48.710;9.622;2023-10-08T03:50:41;11.47;;;3.90;;
4642;SDS011;2334;48.710;9.622;2023-10-08T03:53:08;8.50;;;5.10;;
4642;SDS011;2334;48.710;9.622;2023-10-08T03:55:37;13.50;;;5.60;;
4642;SDS011;2334;48.710;9.622;2023-10-08T03:58:06;8.80;;;4.20;;
4642;SDS011;2334;48.710;9.622;2023-10-08T04:00:37;6.07;;;3.93;;
4642;SDS011;2334;48.710;9.622;2023-10-08T04:03:07;11.20;;;4.20;;
4642;SDS011;2334;48.710;9.622;2023-10-08T04:05:36;7.57;;;4.10;;
4642;SDS011;2334;48.710;9.622;2023-10-08T04:08:31;8.07;;;4.00;;
4642;SDS011;2334;48.710;9.622;2023-10-08T04:11:09;6.73;;;4.30;;
4642;SDS011;2334;48.710;9.622;2023-10-08T04:13:47;12.07;;;5.27;;
4642;SDS011;2334;48.710;9.622;2023-10-08T04:16:17;11.47;;;5.30;;
4642;SDS011;2334;48.710;9.622;2023-10-08T04:18:45;8.37;;;5.00;;
4642;SDS011;2334;48.710;9.622;2023-10-08T04:21:16;8.73;;;4.50;;
4642;SDS011;2334;48.710;9.622;2023-10-08T04:23:47;7.93;;;4.43;;
4642;SDS011;2334;48.710;9.622;2023-10-08T04:26:18;10.70;;;4.00;;
4642;SDS011;2334;48.710;9.622;2023-10-08T04:28:49;13.53;;;4.50;;
4642;SDS011;2334;48.710;9.622;2023-10-08T04:31:20;11.77;;;4.67;;
4642;SDS011;2334;48.710;9.622;2023-10-08T04:33:49;6.73;;;4.37;;
4642;SDS011;2334;48.710;9.622;2023-10-08T04:36:17;10.30;;;4.93;;
4642;SDS011;2334;48.710;9.622;2023-10-08T04:38:46;7.00;;;3.77;;
4642;SDS011;2334;48.710;9.622;2023-10-08T04:41:18;9.93;;;5.30;;
4642;SDS011;2334;48.710;9.622;2023-10-08T04:43:47;11.20;;;4.00;;
4642;SDS011;2334;48.710;9.622;2023-10-08T04:46:14;7.23;;;4.47;;
4642;SDS011;2334;48.710;9.622;2023-10-08T04:48:59;10.10;;;4.53;;
4642;SDS011;2334;48.710;9.622;2023-10-08T04:51:30;5.60;;;3.70;;
4642;SDS011;2334;48.710;9.622;2023-10-08T04:54:10;10.27;;;4.60;;
4642;SDS011;2334;48.710;9.622;2023-10-08T04:56:41;7.57;;;4.43;;
4642;SDS011;2334;48.710;9.622;2023-10-08T04:59:08;12.40;;;4.80;;
4642;SDS011;2334;48.710;9.622;2023-10-08T05:01:36;5.40;;;4.10;;
4642;SDS011;2334;48.710;9.622;2023-10-08T05:04:12;9.97;;;4.63;;
4642;SDS011;2334;48.710;9.622;2023-10-08T05:06:51;10.93;;;5.23;;
4642;SDS011;2334;48.710;9.622;2023-10-08T05:09:45;5.47;;;3.80;;
4642;SDS011;2334;48.710;9.622;2023-10-08T05:12:29;8.37;;;5.20;;
4642;SDS011;2334;48.710;9.622;2023-10-08T05:14:59;7.17;;;4.07;;
4642;SDS011;2334;48.710;9.622;2023-10-08T05:17:45;9.93;;;4.20;;
4642;SDS011;2334;48.710;9.622;2023-10-08T05:20:23;5.30;;;3.93;;
4642;SDS011;2334;48.710;9.622;2023-10-08T05:23:06;9.77;;;4.27;;
4642;SDS011;2334;48.710;9.622;2023-10-08T05:25:47;6.77;;;4.00;;
4642;SDS011;2334;48.710;9.622;2023-10-08T05:28:23;7.40;;;3.70;;
4642;SDS011;2334;48.710;9.622;2023-10-08T05:30:50;12.27;;;5.27;;
4642;SDS011;2334;48.710;9.622;2023-10-08T05:33:20;26.57;;;14.33;;
4642;SDS011;2334;48.710;9.622;2023-10-08T05:36:13;28.00;;;13.93;;
4642;SDS011;2334;48.710;9.622;2023-10-08T05:38:44;20.07;;;10.50;;
4642;SDS011;2334;48.710;9.622;2023-10-08T05:41:27;12.57;;;5.53;;
4642;SDS011;2334;48.710;9.622;2023-10-08T05:43:53;7.93;;;4.43;;
4642;SDS011;2334;48.710;9.622;2023-10-08T05:46:37;7.10;;;3.60;;
4642;SDS011;2334;48.710;9.622;2023-10-08T05:49:31;7.03;;;4.80;;
4642;SDS011;2334;48.710;9.622;2023-10-08T05:52:19;5.97;;;4.20;;
4642;SDS011;2334;48.710;9.622;2023-10-08T05:55:03;9.97;;;4.27;;
4642;SDS011;2334;48.710;9.622;2023-10-08T05:57:44;9.13;;;3.80;;
4642;SDS011;2334;48.710;9.622;2023-10-08T06:00:17;10.50;;;4.70;;
4642;SDS011;2334;48.710;9.622;2023-10-08T06:03:11;8.73;;;3.67;;
4642;SDS011;2334;48.710;9.622;2023-10-08T06:05:53;9.73;;;4.47;;
4642;SDS011;2334;48.710;9.622;2023-10-08T06:08:42;8.80;;;4.90;;
4642;SDS011;2334;48.710;9.622;2023-10-08T06:11:15;6.93;;;4.33;;
4642;SDS011;2334;48.710;9.622;2023-10-08T06:13:54;4.73;;;3.63;;
4642;SDS011;2334;48.710;9.622;2023-10-08T06:16:25;7.23;;;4.13;;
4642;SDS011;2334;48.710;9.622;2023-10-08T06:19:06;7.50;;;4.80;;
4642;SDS011;2334;48.710;9.622;2023-10-08T06:21:34;7.83;;;4.20;;
4642;SDS011;2334;48.710;9.622;2023-10-08T06:24:03;10.00;;;5.50;;
4642;SDS011;2334;48.710;9.622;2023-10-08T06:26:34;11.20;;;5.23;;
4642;SDS011;2334;48.710;9.622;2023-10-08T06:29:09;7.83;;;5.10;;
4642;SDS011;2334;48.710;9.622;2023-10-08T06:31:45;11.17;;;4.97;;
4642;SDS011;2334;48.710;9.622;2023-10-08T06:34:16;10.73;;;4.30;;
4642;SDS011;2334;48.710;9.622;2023-10-08T06:36:46;6.27;;;3.67;;
4642;SDS011;2334;48.710;9.622;2023-10-08T06:39:15;12.60;;;4.30;;
4642;SDS011;2334;48.710;9.622;2023-10-08T06:41:44;6.17;;;3.60;;
4642;SDS011;2334;48.710;9.622;2023-10-08T06:44:12;4.97;;;3.10;;
4642;SDS011;2334;48.710;9.622;2023-10-08T06:46:40;9.20;;;4.47;;
4642;SDS011;2334;48.710;9.622;2023-10-08T06:49:08;10.00;;;4.83;;
4642;SDS011;2334;48.710;9.622;2023-10-08T06:51:38;8.30;;;4.80;;
4642;SDS011;2334;48.710;9.622;2023-10-08T06:54:07;7.97;;;3.90;;
4642;SDS011;2334;48.710;9.622;2023-10-08T06:56:36;8.77;;;4.07;;
4642;SDS011;2334;48.710;9.622;2023-10-08T06:59:04;8.13;;;4.50;;
4642;SDS011;2334;48.710;9.622;2023-10-08T07:01:36;7.90;;;4.53;;
4642;SDS011;2334;48.710;9.622;2023-10-08T07:04:05;7.90;;;3.97;;
4642;SDS011;2334;48.710;9.622;2023-10-08T07:06:37;12.40;;;4.67;;
4642;SDS011;2334;48.710;9.622;2023-10-08T07:09:05;8.00;;;3.80;;
4642;SDS011;2334;48.710;9.622;2023-10-08T07:11:39;9.73;;;5.07;;
4642;SDS011;2334;48.710;9.622;2023-10-08T07:14:10;7.50;;;3.97;;
4642;SDS011;2334;48.710;9.622;2023-10-08T07:16:40;9.37;;;4.43;;
4642;SDS011;2334;48.710;9.622;2023-10-08T07:19:07;14.33;;;4.70;;
4642;SDS011;2334;48.710;9.622;2023-10-08T07:21:43;8.90;;;3.73;;
4642;SDS011;2334;48.710;9.622;2023-10-08T07:24:11;10.17;;;4.20;;
4642;SDS011;2334;48.710;9.622;2023-10-08T07:26:40;7.93;;;3.57;;
4642;SDS011;2334;48.710;9.622;2023-10-08T07:29:12;9.20;;;3.87;;
4642;SDS011;2334;48.710;9.622;2023-10-08T07:31:43;8.73;;;4.30;;
4642;SDS011;2334;48.710;9.622;2023-10-08T07:34:14;6.90;;;4.40;;
4642;SDS011;2334;48.710;9.622;2023-10-08T07:36:50;8.77;;;3.90;;
4642;SDS011;2334;48.710;9.622;2023-10-08T07:39:18;8.33;;;4.07;;
4642;SDS011;2334;48.710;9.622;2023-10-08T07:41:59;10.30;;;4.67;;
4642;SDS011;2334;48.710;9.622;2023-10-08T07:44:26;8.80;;;4.57;;
4642;SDS011;2334;48.710;9.622;2023-10-08T07:46:56;14.13;;;4.73;;
4642;SDS011;2334;48.710;9.622;2023-10-08T07:49:24;9.60;;;4.43;;
4642;SDS011;2334;48.710;9.622;2023-10-08T07:51:55;9.60;;;4.43;;
4642;SDS011;2334;48.710;9.622;2023-10-08T07:54:24;14.20;;;5.27;;
4642;SDS011;2334;48.710;9.622;2023-10-08T07:56:52;9.47;;;4.30;;
4642;SDS011;2334;48.710;9.622;2023-10-08T07:59:24;10.43;;;4.23;;
4642;SDS011;2334;48.710;9.622;2023-10-08T08:01:51;8.27;;;4.67;;
4642;SDS011;2334;48.710;9.622;2023-10-08T08:04:20;8.17;;;3.43;;
4642;SDS011;2334;48.710;9.622;2023-10-08T08:06:48;9.20;;;5.10;;
4642;SDS011;2334;48.710;9.622;2023-10-08T08:09:16;11.10;;;4.90;;
4642;SDS011;2334;48.710;9.622;2023-10-08T08:11:46;13.87;;;5.60;;
4642;SDS011;2334;48.710;9.622;2023-10-08T08:14:13;8.63;;;4.70;;
4642;SDS011;2334;48.710;9.622;2023-10-08T08:16:43;14.33;;;4.80;;
4642;SDS011;2334;48.710;9.622;2023-10-08T08:19:13;12.47;;;6.47;;
4642;SDS011;2334;48.710;9.622;2023-10-08T08:21:43;10.13;;;3.90;;
4642;SDS011;2334;48.710;9.622;2023-10-08T08:24:11;10.37;;;3.60;;
4642;SDS011;2334;48.710;9.622;2023-10-08T08:26:40;10.43;;;3.87;;
4642;SDS011;2334;48.710;9.622;2023-10-08T08:29:26;9.40;;;3.93;;
4642;SDS011;2334;48.710;9.622;2023-10-08T08:31:54;6.17;;;3.83;;
4642;SDS011;2334;48.710;9.622;2023-10-08T08:34:22;12.97;;;4.07;;
4642;SDS011;2334;48.710;9.622;2023-10-08T08:36:50;7.30;;;3.77;;
4642;SDS011;2334;48.710;9.622;2023-10-08T08:39:17;15.30;;;3.73;;
4642;SDS011;2334;48.710;9.622;2023-10-08T08:41:58;11.07;;;3.50;;
4642;SDS011;2334;48.710;9.622;2023-10-08T08:44:29;8.07;;;4.67;;
4642;SDS011;2334;48.710;9.622;2023-10-08T08:46:58;6.40;;;3.57;;
4642;SDS011;2334;48.710;9.622;2023-10-08T08:49:29;9.13;;;4.40;;
4642;SDS011;2334;48.710;9.622;2023-10-08T08:52:00;8.57;;;3.90;;
4642;SDS011;2334;48.710;9.622;2023-10-08T08:54:27;17.80;;;4.77;;
4642;SDS011;2334;48.710;9.622;2023-10-08T08:56:56;10.90;;;4.60;;
4642;SDS011;2334;48.710;9.622;2023-10-08T08:59:25;14.23;;;6.03;;
4642;SDS011;2334;48.710;9.622;2023-10-08T09:01:55;7.73;;;3.37;;
4642;SDS011;2334;48.710;9.622;2023-10-08T09:04:27;8.87;;;3.50;;
4642;SDS011;2334;48.710;9.622;2023-10-08T09:06:55;7.43;;;3.50;;
4642;SDS011;2334;48.710;9.622;2023-10-08T09:09:25;7.73;;;3.47;;
4642;SDS011;2334;48.710;9.622;2023-10-08T09:11:57;6.10;;;3.90;;
4642;SDS011;2334;48.710;9.622;2023-10-08T09:14:25;8.10;;;2.73;;
4642;SDS011;2334;48.710;9.622;2023-10-08T09:16:55;4.90;;;2.70;;
4642;SDS011;2334;48.710;9.622;2023-10-08T09:19:22;10.13;;;3.20;;
4642;SDS011;2334;48.710;9.622;2023-10-08T09:21:59;4.63;;;2.83;;
4642;SDS011;2334;48.710;9.622;2023-10-08T09:24:30;8.20;;;2.80;;
4642;SDS011;2334;48.710;9.622;2023-10-08T09:26:58;11.13;;;3.20;;
4642;SDS011;2334;48.710;9.622;2023-10-08T09:29:27;6.97;;;3.13;;
4642;SDS011;2334;48.710;9.622;2023-10-08T09:31:55;8.17;;;2.70;;
4642;SDS011;2334;48.710;9.622;2023-10-08T09:34:26;4.90;;;2.30;;
4642;SDS011;2334;48.710;9.622;2023-10-08T09:36:54;8.33;;;2.53;;
4642;SDS011;2334;48.710;9.622;2023-10-08T09:39:22;8.00;;;3.33;;
4642;SDS011;2334;48.710;9.622;2023-10-08T09:41:53;6.40;;;2.53;;
4642;SDS011;2334;48.710;9.622;2023-10-08T09:44:21;4.23;;;3.20;;
4642;SDS011;2334;48.710;9.622;2023-10-08T09:46:52;6.67;;;2.90;;
4642;SDS011;2334;48.710;9.622;2023-10-08T09:49:22;6.67;;;3.03;;
4642;SDS011;2334;48.710;9.622;2023-10-08T09:51:57;4.63;;;2.47;;
4642;SDS011;2334;48.710;9.622;2023-10-08T09:54:28;11.13;;;3.30;;
4642;SDS011;2334;48.710;9.622;2023-10-08T09:56:59;7.30;;;2.67;;
4642;SDS011;2334;48.710;9.622;2023-10-08T09:59:31;16.83;;;3.37;;
4642;SDS011;2334;48.710;9.622;2023-10-08T10:01:59;8.87;;;2.77;;
4642;SDS011;2334;48.710;9.622;2023-10-08T10:04:29;11.03;;;2.53;;
4642;SDS011;2334;48.710;9.622;2023-10-08T10:06:58;7.20;;;2.90;;
4642;SDS011;2334;48.710;9.622;2023-10-08T10:09:33;11.13;;;2.40;;
4642;SDS011;2334;48.710;9.622;2023-10-08T10:12:03;7.80;;;3.53;;
4642;SDS011;2334;48.710;9.622;2023-10-08T10:14:40;6.00;;;2.43;;
4642;SDS011;2334;48.710;9.622;2023-10-08T10:17:09;3.43;;;2.10;;
4642;SDS011;2334;48.710;9.622;2023-10-08T10:19:39;6.93;;;2.63;;
4642;SDS011;2334;48.710;9.622;2023-10-08T10:22:11;6.53;;;2.50;;
4642;SDS011;2334;48.710;9.622;2023-10-08T10:24:41;5.07;;;2.60;;
4642;SDS011;2334;48.710;9.622;2023-10-08T10:27:13;7.90;;;2.37;;
4642;SDS011;2334;48.710;9.622;2023-10-08T10:29:41;4.67;;;2.37;;
4642;SDS011;2334;48.710;9.622;2023-10-08T10:32:10;8.87;;;2.87;;
4642;SDS011;2334;48.710;9.622;2023-10-08T10:34:40;5.47;;;2.90;;
4642;SDS011;2334;48.710;9.622;2023-10-08T10:37:08;11.33;;;2.30;;
4642;SDS011;2334;48.710;9.622;2023-10-08T10:39:50;7.70;;;2.67;;
4642;SDS011;2334;48.710;9.622;2023-10-08T10:42:20;10.83;;;2.80;;
4642;SDS011;2334;48.710;9.622;2023-10-08T10:44:47;7.40;;;2.53;;
4642;SDS011;2334;48.710;9.622;2023-10-08T10:47:18;4.73;;;2.20;;
4642;SDS011;2334;48.710;9.622;2023-10-08T10:50:07;9.43;;;2.80;;
4642;SDS011;2334;48.710;9.622;2023-10-08T10:52:51;9.03;;;3.10;;
4642;SDS011;2334;48.710;9.622;2023-10-08T10:55:18;13.27;;;3.50;;
4642;SDS011;2334;48.710;9.622;2023-10-08T10:57:58;3.80;;;2.40;;
4642;SDS011;2334;48.710;9.622;2023-10-08T11:00:29;6.40;;;2.50;;
4642;SDS011;2334;48.710;9.622;2023-10-08T11:03:22;3.87;;;2.33;;
4642;SDS011;2334;48.710;9.622;2023-10-08T11:05:50;6.73;;;3.33;;
4642;SDS011;2334;48.710;9.622;2023-10-08T11:08:24;13.50;;;3.30;;
4642;SDS011;2334;48.710;9.622;2023-10-08T11:10:59;12.33;;;3.73;;
4642;SDS011;2334;48.710;9.622;2023-10-08T11:13:32;6.60;;;3.37;;
4642;SDS011;2334;48.710;9.622;2023-10-08T11:16:04;7.83;;;2.40;;
4642;SDS011;2334;48.710;9.622;2023-10-08T11:18:34;5.60;;;2.53;;
4642;SDS011;2334;48.710;9.622;2023-10-08T11:21:06;6.50;;;2.83;;
4642;SDS011;2334;48.710;9.622;2023-10-08T11:23:44;5.50;;;2.50;;
4642;SDS011;2334;48.710;9.622;2023-10-08T11:26:17;5.87;;;2.57;;
4642;SDS011;2334;48.710;9.622;2023-10-08T11:28:48;5.90;;;2.97;;
4642;SDS011;2334;48.710;9.622;2023-10-08T11:31:15;10.23;;;2.40;;
4642;SDS011;2334;48.710;9.622;2023-10-08T11:33:45;7.90;;;2.97;;
4642;SDS011;2334;48.710;9.622;2023-10-08T11:36:19;4.10;;;1.93;;
4642;SDS011;2334;48.710;9.622;2023-10-08T11:38:52;4.80;;;2.57;;
4642;SDS011;2334;48.710;9.622;2023-10-08T11:41:26;8.40;;;2.97;;
4642;SDS011;2334;48.710;9.622;2023-10-08T11:43:55;5.70;;;3.00;;
4642;SDS011;2334;48.710;9.622;2023-10-08T11:46:23;7.00;;;2.20;;
4642;SDS011;2334;48.710;9.622;2023-10-08T11:48:58;9.23;;;2.63;;
4642;SDS011;2334;48.710;9.622;2023-10-08T11:51:29;9.60;;;3.10;;
4642;SDS011;2334;48.710;9.622;2023-10-08T11:53:57;9.67;;;3.53;;
4642;SDS011;2334;48.710;9.622;2023-10-08T11:56:25;8.83;;;3.20;;
4642;SDS011;2334;48.710;9.622;2023-10-08T11:58:52;11.57;;;3.10;;
4642;SDS011;2334;48.710;9.622;2023-10-08T12:01:22;7.27;;;3.10;;
4642;SDS011;2334;48.710;9.622;2023-10-08T12:03:49;7.43;;;2.93;;
4642;SDS011;2334;48.710;9.622;2023-10-08T12:06:16;11.17;;;3.17;;
4642;SDS011;2334;48.710;9.622;2023-10-08T12:08:44;6.93;;;3.30;;
4642;SDS011;2334;48.710;9.622;2023-10-08T12:11:12;8.47;;;2.90;;
4642;SDS011;2334;48.710;9.622;2023-10-08T12:13:39;5.37;;;3.30;;
4642;SDS011;2334;48.710;9.622;2023-10-08T12:16:11;11.40;;;3.40;;
4642;SDS011;2334;48.710;9.622;2023-10-08T12:18:43;7.53;;;3.40;;
4642;SDS011;2334;48.710;9.622;2023-10-08T12:21:13;4.07;;;2.43;;
4642;SDS011;2334;48.710;9.622;2023-10-08T12:23:42;5.90;;;2.70;;
4642;SDS011;2334;48.710;9.622;2023-10-08T12:26:11;5.90;;;2.87;;
4642;SDS011;2334;48.710;9.622;2023-10-08T12:28:41;6.63;;;3.50;;
4642;SDS011;2334;48.710;9.622;2023-10-08T12:31:11;8.13;;;3.67;;
4642;SDS011;2334;48.710;9.622;2023-10-08T12:33:40;7.50;;;3.83;;
4642;SDS011;2334;48.710;9.622;2023-10-08T12:36:08;14.63;;;3.30;;
4642;SDS011;2334;48.710;9.622;2023-10-08T12:38:39;7.87;;;2.70;;
4642;SDS011;2334;48.710;9.622;2023-10-08T12:41:07;6.57;;;2.80;;
4642;SDS011;2334;48.710;9.622;2023-10-08T12:43:38;18.57;;;3.70;;
4642;SDS011;2334;48.710;9.622;2023-10-08T12:46:07;10.70;;;2.93;;
4642;SDS011;2334;48.710;9.622;2023-10-08T12:48:42;11.23;;;3.90;;
4642;SDS011;2334;48.710;9.622;2023-10-08T12:51:12;7.53;;;2.37;;
4642;SDS011;2334;48.710;9.622;2023-10-08T12:53:40;12.70;;;3.30;;
4642;SDS011;2334;48.710;9.622;2023-10-08T12:56:15;9.90;;;2.67;;
4642;SDS011;2334;48.710;9.622;2023-10-08T12:58:46;10.17;;;2.83;;
4642;SDS011;2334;48.710;9.622;2023-10-08T13:01:14;16.20;;;4.17;;
4642;SDS011;2334;48.710;9.622;2023-10-08T13:03:44;8.30;;;2.97;;
4642;SDS011;2334;48.710;9.622;2023-10-08T13:06:13;10.30;;;3.30;;
4642;SDS011;2334;48.710;9.622;2023-10-08T13:08:47;9.70;;;3.87;;
4642;SDS011;2334;48.710;9.622;2023-10-08T13:11:15;5.67;;;3.10;;
4642;SDS011;2334;48.710;9.622;2023-10-08T13:13:47;10.20;;;3.30;;
4642;SDS011;2334;48.710;9.622;2023-10-08T13:16:15;10.27;;;3.37;;
4642;SDS011;2334;48.710;9.622;2023-10-08T13:18:42;7.67;;;3.47;;
4642;SDS011;2334;48.710;9.622;2023-10-08T13:21:10;10.57;;;3.50;;
4642;SDS011;2334;48.710;9.622;2023-10-08T13:23:37;9.13;;;3.17;;
4642;SDS011;2334;48.710;9.622;2023-10-08T13:26:04;7.50;;;2.67;;
4642;SDS011;2334;48.710;9.622;2023-10-08T13:28:32;13.20;;;2.93;;
4642;SDS011;2334;48.710;9.622;2023-10-08T13:31:00;9.93;;;3.80;;
4642;SDS011;2334;48.710;9.622;2023-10-08T13:33:34;8.17;;;2.63;;
4642;SDS011;2334;48.710;9.622;2023-10-08T13:36:05;6.30;;;2.90;;
4642;SDS011;2334;48.710;9.622;2023-10-08T13:38:34;5.93;;;2.47;;
4642;SDS011;2334;48.710;9.622;2023-10-08T13:41:01;5.30;;;2.93;;
4642;SDS011;2334;48.710;9.622;2023-10-08T13:43:30;15.93;;;4.20;;
4642;SDS011;2334;48.710;9.622;2023-10-08T13:46:01;14.97;;;4.17;;
4642;SDS011;2334;48.710;9.622;2023-10-08T13:48:38;9.63;;;3.17;;
4642;SDS011;2334;48.710;9.622;2023-10-08T13:51:07;4.13;;;2.10;;
4642;SDS011;2334;48.710;9.622;2023-10-08T13:53:39;5.53;;;2.43;;
4642;SDS011;2334;48.710;9.622;2023-10-08T13:56:06;9.67;;;4.20;;
4642;SDS011;2334;48.710;9.622;2023-10-08T13:58:36;12.23;;;3.10;;
4642;SDS011;2334;48.710;9.622;2023-10-08T14:01:06;6.73;;;3.20;;
4642;SDS011;2334;48.710;9.622;2023-10-08T14:03:44;10.40;;;2.90;;
4642;SDS011;2334;48.710;9.622;2023-10-08T14:06:13;12.60;;;3.40;;
4642;SDS011;2334;48.710;9.622;2023-10-08T14:08:41;14.07;;;5.00;;
4642;SDS011;2334;48.710;9.622;2023-10-08T14:11:13;7.53;;;3.13;;
4642;SDS011;2334;48.710;9.622;2023-10-08T14:13:40;11.90;;;3.50;;
4642;SDS011;2334;48.710;9.622;2023-10-08T14:16:08;14.30;;;3.10;;
4642;SDS011;2334;48.710;9.622;2023-10-08T14:18:36;5.27;;;2.60;;
4642;SDS011;2334;48.710;9.622;2023-10-08T14:21:05;4.63;;;2.73;;
4642;SDS011;2334;48.710;9.622;2023-10-08T14:23:37;7.83;;;2.80;;
4642;SDS011;2334;48.710;9.622;2023-10-08T14:26:05;9.87;;;3.10;;
4642;SDS011;2334;48.710;9.622;2023-10-08T14:28:32;4.93;;;2.53;;
4642;SDS011;2334;48.710;9.622;2023-10-08T14:31:07;11.20;;;3.87;;
4642;SDS011;2334;48.710;9.622;2023-10-08T14:33:40;7.67;;;2.93;;
4642;SDS011;2334;48.710;9.622;2023-10-08T14:36:09;7.23;;;3.50;;
4642;SDS011;2334;48.710;9.622;2023-10-08T14:38:54;13.00;;;3.90;;
4642;SDS011;2334;48.710;9.622;2023-10-08T14:41:39;7.67;;;3.00;;
4642;SDS011;2334;48.710;9.622;2023-10-08T14:44:23;8.53;;;3.03;;
4642;SDS011;2334;48.710;9.622;2023-10-08T14:46:50;6.63;;;2.80;;
4642;SDS011;2334;48.710;9.622;2023-10-08T14:49:19;9.30;;;3.60;;
4642;SDS011;2334;48.710;9.622;2023-10-08T14:51:47;9.63;;;3.40;;
4642;SDS011;2334;48.710;9.622;2023-10-08T14:54:16;14.00;;;3.27;;
4642;SDS011;2334;48.710;9.622;2023-10-08T14:56:43;4.70;;;2.60;;
4642;SDS011;2334;48.710;9.622;2023-10-08T14:59:09;7.13;;;3.50;;
4642;SDS011;2334;48.710;9.622;2023-10-08T15:01:36;6.30;;;2.53;;
4642;SDS011;2334;48.710;9.622;2023-10-08T15:04:04;8.00;;;3.03;;
4642;SDS011;2334;48.710;9.622;2023-10-08T15:06:31;9.60;;;3.50;;
4642;SDS011;2334;48.710;9.622;2023-10-08T15:08:58;5.80;;;3.23;;
4642;SDS011;2334;48.710;9.622;2023-10-08T15:11:27;8.27;;;2.73;;
4642;SDS011;2334;48.710;9.622;2023-10-08T15:13:55;9.07;;;2.97;;
4642;SDS011;2334;48.710;9.622;2023-10-08T15:16:22;4.83;;;2.90;;
4642;SDS011;2334;48.710;9.622;2023-10-08T15:18:51;8.50;;;3.57;;
4642;SDS011;2334;48.710;9.622;2023-10-08T15:21:18;7.97;;;2.50;;
4642;SDS011;2334;48.710;9.622;2023-10-08T15:23:46;8.37;;;3.10;;
4642;SDS011;2334;48.710;9.622;2023-10-08T15:26:13;10.57;;;2.93;;
4642;SDS011;2334;48.710;9.622;2023-10-08T15:28:41;9.10;;;4.20;;
4642;SDS011;2334;48.710;9.622;2023-10-08T15:31:08;6.67;;;2.70;;
4642;SDS011;2334;48.710;9.622;2023-10-08T15:33:35;6.20;;;2.33;;
4642;SDS011;2334;48.710;9.622;2023-10-08T15:36:03;7.73;;;2.70;;